createdAt,value
2024-02-26T00:00:28.280Z,2.70
2024-02-26T00:02:55.518Z,1.25
2024-02-26T00:05:22.809Z,1.17
2024-02-26T00:07:50.470Z,1.10
2024-02-26T00:10:20.705Z,1.55
2024-02-26T00:12:51.164Z,1.40
2024-02-26T00:15:19.081Z,1.85
2024-02-26T00:17:46.550Z,2.35
2024-02-26T00:20:15.384Z,3.70
2024-02-26T00:22:43.201Z,2.88
2024-02-26T00:25:10.634Z,2.67
2024-02-26T00:27:38.234Z,2.80
2024-02-26T00:30:08.679Z,3.00
2024-02-26T00:32:36.547Z,3.05
2024-02-26T00:35:03.961Z,2.03
2024-02-26T00:37:31.534Z,2.30
2024-02-26T00:39:59.100Z,1.50
2024-02-26T00:42:26.850Z,1.60
2024-02-26T00:44:54.143Z,1.70
2024-02-26T00:47:21.718Z,2.33
2024-02-26T00:49:49.281Z,1.42
2024-02-26T00:52:16.733Z,1.48
2024-02-26T00:54:43.730Z,1.30
2024-02-26T00:57:11.405Z,1.52
2024-02-26T00:59:38.785Z,1.73
2024-02-26T01:02:08.192Z,1.60
2024-02-26T01:04:35.620Z,1.50
2024-02-26T01:07:03.079Z,1.27
2024-02-26T01:09:30.313Z,1.27
2024-02-26T01:11:57.588Z,1.60
2024-02-26T01:14:24.995Z,1.08
2024-02-26T01:16:52.044Z,1.50
2024-02-26T01:19:19.270Z,2.08
2024-02-26T01:21:46.732Z,1.95
2024-02-26T01:24:13.997Z,2.10
2024-02-26T01:26:41.394Z,2.45
2024-02-26T01:29:08.615Z,2.08
2024-02-26T01:31:35.946Z,2.50
2024-02-26T01:34:03.598Z,2.22
2024-02-26T01:36:30.812Z,2.60
2024-02-26T01:38:57.973Z,2.95
2024-02-26T01:41:25.172Z,3.15
2024-02-26T01:43:52.701Z,2.60
2024-02-26T01:46:20.085Z,2.30
2024-02-26T01:48:49.120Z,2.70
2024-02-26T01:51:17.511Z,2.50
2024-02-26T01:53:45.051Z,2.72
2024-02-26T01:56:13.616Z,3.20
2024-02-26T01:58:41.019Z,2.80
2024-02-26T02:01:09.115Z,2.85
2024-02-26T02:03:37.277Z,2.10
2024-02-26T02:06:06.880Z,2.22
2024-02-26T02:08:36.474Z,2.15
2024-02-26T02:11:04.155Z,1.85
2024-02-26T02:13:31.648Z,1.60
2024-02-26T02:15:58.891Z,1.30
2024-02-26T02:18:26.201Z,1.70
2024-02-26T02:20:55.083Z,1.60
2024-02-26T02:23:22.237Z,1.70
2024-02-26T02:25:49.330Z,2.10
2024-02-26T02:28:16.906Z,2.83
2024-02-26T02:30:44.198Z,3.03
2024-02-26T02:33:13.121Z,2.42
2024-02-26T02:35:40.346Z,2.10
2024-02-26T02:38:08.053Z,1.90
2024-02-26T02:40:36.032Z,2.13
2024-02-26T02:43:03.360Z,2.05
2024-02-26T02:45:30.591Z,1.85
2024-02-26T02:47:57.926Z,1.50
2024-02-26T02:50:25.126Z,1.48
2024-02-26T02:52:52.461Z,2.03
2024-02-26T02:55:20.058Z,1.33
2024-02-26T02:57:47.234Z,1.50
2024-02-26T03:00:14.649Z,1.42
2024-02-26T03:02:41.908Z,1.48
2024-02-26T03:05:09.715Z,1.70
2024-02-26T03:07:36.873Z,1.48
2024-02-26T03:10:04.492Z,1.80
2024-02-26T03:12:32.161Z,1.73
2024-02-26T03:14:59.381Z,2.83
2024-02-26T03:17:26.552Z,1.60
2024-02-26T03:19:55.473Z,1.42
2024-02-26T03:22:22.888Z,1.67
2024-02-26T03:24:50.140Z,1.50
2024-02-26T03:27:17.434Z,1.83
2024-02-26T03:29:44.917Z,1.80
2024-02-26T03:32:12.035Z,2.25
2024-02-26T03:34:41.223Z,1.60
2024-02-26T03:37:10.652Z,1.60
2024-02-26T03:39:38.711Z,1.30
2024-02-26T03:42:06.167Z,1.58
2024-02-26T03:44:33.627Z,1.10
2024-02-26T03:47:01.115Z,1.73
2024-02-26T03:49:28.553Z,1.90
2024-02-26T03:51:55.803Z,1.50
2024-02-26T03:54:23.560Z,1.27
2024-02-26T03:56:50.679Z,1.40
2024-02-26T03:59:18.217Z,1.13
2024-02-26T04:01:51.381Z,1.50
2024-02-26T04:04:18.497Z,1.80
2024-02-26T04:06:47.766Z,2.05
2024-02-26T04:09:16.062Z,2.17
2024-02-26T04:11:44.846Z,2.00
2024-02-26T04:14:14.018Z,2.10
2024-02-26T04:16:41.185Z,2.05
2024-02-26T04:19:08.490Z,2.13
2024-02-26T04:21:36.390Z,2.13
2024-02-26T04:24:03.899Z,1.98
2024-02-26T04:26:32.137Z,1.77
2024-02-26T04:28:59.300Z,1.92
2024-02-26T04:31:27.532Z,1.75
2024-02-26T04:33:54.931Z,2.22
2024-02-26T04:36:23.548Z,1.85
2024-02-26T04:38:50.872Z,2.05
2024-02-26T04:41:18.108Z,2.22
2024-02-26T04:43:45.428Z,1.95
2024-02-26T04:46:12.859Z,1.90
2024-02-26T04:48:40.581Z,2.10
2024-02-26T04:51:08.199Z,2.78
2024-02-26T04:53:35.409Z,2.65
2024-02-26T04:56:02.832Z,2.40
2024-02-26T04:58:30.336Z,2.45
2024-02-26T05:00:57.515Z,2.50
2024-02-26T05:03:24.658Z,2.75
2024-02-26T05:05:52.054Z,2.55
2024-02-26T05:08:19.144Z,2.70
2024-02-26T05:10:49.359Z,2.40
2024-02-26T05:13:19.152Z,2.53
2024-02-26T05:15:48.240Z,2.22
2024-02-26T05:18:15.354Z,1.80
2024-02-26T05:20:42.751Z,1.40
2024-02-26T05:23:10.985Z,1.48
2024-02-26T05:25:38.163Z,0.50
2024-02-26T05:28:05.680Z,0.40
2024-02-26T05:30:32.976Z,1.17
2024-02-26T05:33:00.252Z,1.00
2024-02-26T05:35:27.437Z,0.47
2024-02-26T05:37:55.203Z,0.60
2024-02-26T05:40:22.609Z,0.68
2024-02-26T05:42:50.397Z,1.05
2024-02-26T05:45:18.103Z,1.50
2024-02-26T05:47:45.474Z,1.40
2024-02-26T05:50:12.909Z,1.00
2024-02-26T05:52:40.198Z,1.58
2024-02-26T05:55:08.339Z,1.60
2024-02-26T05:57:35.975Z,1.40
2024-02-26T06:00:05.477Z,1.40
2024-02-26T06:02:41.729Z,1.30
2024-02-26T06:05:10.329Z,2.15
2024-02-26T06:07:37.968Z,1.50
2024-02-26T06:10:06.162Z,0.80
2024-02-26T06:12:36.948Z,0.30
2024-02-26T06:17:32.965Z,0.30
2024-02-26T06:20:03.229Z,0.50
2024-02-26T06:24:58.370Z,0.35
2024-02-26T06:27:25.852Z,0.30
2024-02-26T06:29:54.996Z,0.40
2024-02-26T06:32:24.405Z,0.52
2024-02-26T06:34:51.807Z,0.25
2024-02-26T06:37:19.010Z,0.35
2024-02-26T06:39:47.386Z,0.90
2024-02-26T06:42:14.774Z,0.95
2024-02-26T06:44:42.370Z,0.80
2024-02-26T06:47:12.863Z,0.43
2024-02-26T06:49:40.386Z,0.88
2024-02-26T06:52:07.701Z,0.45
2024-02-26T06:54:35.067Z,0.43
2024-02-26T06:57:02.315Z,0.40
2024-02-26T06:59:58.524Z,0.75
2024-02-26T07:02:26.297Z,0.35
2024-02-26T07:04:53.661Z,0.65
2024-02-26T07:07:20.886Z,0.35
2024-02-26T07:09:49.371Z,0.50
2024-02-26T07:12:17.519Z,0.22
2024-02-26T07:14:44.724Z,0.45
2024-02-26T07:17:11.952Z,0.38
2024-02-26T07:19:39.197Z,0.40
2024-02-26T07:22:09.347Z,0.52
2024-02-26T07:24:36.595Z,0.60
2024-02-26T07:27:04.180Z,0.90
2024-02-26T07:29:31.548Z,0.80
2024-02-26T07:31:59.514Z,0.65
2024-02-26T07:34:30.948Z,0.20
2024-02-26T07:36:58.553Z,0.50
2024-02-26T07:39:25.644Z,0.60
2024-02-26T07:41:54.727Z,0.40
2024-02-26T07:44:22.167Z,0.47
2024-02-26T07:46:49.498Z,0.30
2024-02-26T07:49:16.941Z,0.47
2024-02-26T07:51:44.408Z,0.52
2024-02-26T07:54:11.675Z,0.80
2024-02-26T07:56:39.110Z,0.52
2024-02-26T07:59:06.156Z,1.20
2024-02-26T08:01:33.493Z,0.60
2024-02-26T08:04:00.874Z,0.45
2024-02-26T08:06:28.766Z,0.40
2024-02-26T08:08:56.052Z,0.55
2024-02-26T08:11:23.579Z,0.82
2024-02-26T08:13:51.224Z,1.00
2024-02-26T08:16:20.832Z,0.68
2024-02-26T08:18:48.157Z,0.47
2024-02-26T08:21:15.425Z,0.68
2024-02-26T08:23:45.212Z,0.80
2024-02-26T08:26:13.184Z,0.70
2024-02-26T08:28:40.525Z,0.90
2024-02-26T08:31:08.152Z,1.52
2024-02-26T08:33:36.874Z,0.85
2024-02-26T08:36:08.018Z,0.98
2024-02-26T08:38:37.359Z,0.50
2024-02-26T08:41:05.582Z,0.60
2024-02-26T08:43:32.812Z,0.50
2024-02-26T08:45:59.974Z,0.60
2024-02-26T08:48:27.484Z,0.73
2024-02-26T08:50:54.676Z,0.60
2024-02-26T08:53:27.816Z,0.40
2024-02-26T08:55:59.246Z,0.40
2024-02-26T08:58:26.413Z,1.00
2024-02-26T09:00:54.043Z,0.60
2024-02-26T09:03:21.540Z,0.55
2024-02-26T09:05:49.442Z,0.65
2024-02-26T09:08:16.930Z,0.65
2024-02-26T09:10:44.329Z,0.40
2024-02-26T09:13:11.494Z,0.52
2024-02-26T09:15:38.841Z,0.40
2024-02-26T09:18:06.465Z,0.47
2024-02-26T09:20:33.735Z,0.30
2024-02-26T09:23:03.958Z,0.38
2024-02-26T09:25:31.299Z,0.25
2024-02-26T09:27:58.430Z,0.32
2024-02-26T09:30:25.928Z,0.50
2024-02-26T09:32:53.173Z,0.50
2024-02-26T09:35:20.533Z,0.40
2024-02-26T09:37:47.828Z,0.35
2024-02-26T09:40:14.887Z,0.60
2024-02-26T09:42:47.894Z,0.38
2024-02-26T09:45:23.225Z,0.50
2024-02-26T09:47:51.501Z,0.60
2024-02-26T09:50:24.052Z,0.60
2024-02-26T09:52:54.453Z,0.68
2024-02-26T09:55:21.968Z,0.70
2024-02-26T09:57:52.848Z,0.70
2024-02-26T10:02:49.268Z,0.93
2024-02-26T10:05:22.602Z,0.70
2024-02-26T10:07:50.560Z,0.40
2024-02-26T10:10:19.061Z,0.57
2024-02-26T10:12:46.476Z,0.85
2024-02-26T10:15:14.820Z,0.70
2024-02-26T10:17:42.832Z,1.08
2024-02-26T10:20:16.411Z,1.50
2024-02-26T10:22:43.954Z,0.82
2024-02-26T10:25:14.118Z,0.82
2024-02-26T10:27:44.727Z,0.43
2024-02-26T10:30:22.990Z,1.10
2024-02-26T10:32:51.742Z,1.13
2024-02-26T10:35:22.333Z,1.00
2024-02-26T10:37:53.872Z,1.20
2024-02-26T10:40:21.201Z,1.00
2024-02-26T10:42:48.613Z,0.63
2024-02-26T10:45:16.161Z,1.10
2024-02-26T10:47:44.042Z,1.40
2024-02-26T10:50:14.593Z,1.23
2024-02-26T10:52:43.706Z,2.22
2024-02-26T10:55:21.866Z,2.05
2024-02-26T10:57:53.863Z,1.30
2024-02-26T11:00:21.195Z,1.17
2024-02-26T11:02:49.675Z,1.42
2024-02-26T11:05:18.572Z,0.70
2024-02-26T11:07:48.323Z,1.30
2024-02-26T11:10:18.666Z,0.90
2024-02-26T11:12:47.563Z,0.68
2024-02-26T11:15:15.477Z,1.00
2024-02-26T11:17:44.354Z,0.93
2024-02-26T11:20:14.142Z,0.60
2024-02-26T11:22:42.189Z,0.80
2024-02-26T11:25:10.205Z,1.10
2024-02-26T11:27:45.250Z,0.80
2024-02-26T11:30:15.457Z,0.80
2024-02-26T11:32:47.110Z,1.10
2024-02-26T11:35:16.651Z,0.82
2024-02-26T11:37:56.005Z,1.10
2024-02-26T11:40:27.234Z,0.90
2024-02-26T11:42:55.540Z,1.00
2024-02-26T11:45:41.280Z,0.60
2024-02-26T11:48:15.870Z,0.43
2024-02-26T11:50:45.030Z,0.55
2024-02-26T11:53:27.098Z,0.80
2024-02-26T11:56:31.823Z,0.40
2024-02-26T11:59:08.335Z,0.50
2024-02-26T12:01:40.252Z,0.90
2024-02-26T12:04:12.955Z,0.73
2024-02-26T12:06:57.797Z,0.85
2024-02-26T12:09:43.230Z,1.88
2024-02-26T12:12:15.143Z,1.00
2024-02-26T12:14:57.135Z,0.73
2024-02-26T12:17:25.876Z,0.70
2024-02-26T12:19:54.947Z,0.88
2024-02-26T12:22:22.249Z,1.13
2024-02-26T12:24:59.617Z,1.30
2024-02-26T12:27:27.340Z,1.40
2024-02-26T12:29:55.300Z,1.23
2024-02-26T12:32:22.532Z,1.40
2024-02-26T12:34:50.831Z,1.30
2024-02-26T12:37:18.304Z,1.10
2024-02-26T12:39:47.186Z,0.80
2024-02-26T12:42:16.206Z,1.63
2024-02-26T12:44:43.461Z,1.40
2024-02-26T12:47:11.879Z,1.30
2024-02-26T12:49:39.477Z,1.30
2024-02-26T12:52:08.417Z,1.40
2024-02-26T12:54:36.116Z,0.95
2024-02-26T12:57:07.194Z,1.10
2024-02-26T12:59:36.823Z,1.10
2024-02-26T13:02:07.963Z,0.95
2024-02-26T13:04:36.694Z,0.80
2024-02-26T13:07:07.338Z,1.23
2024-02-26T13:09:38.807Z,1.08
2024-02-26T13:12:07.607Z,2.10
2024-02-26T13:14:35.345Z,1.48
2024-02-26T13:17:03.580Z,1.10
2024-02-26T13:19:31.122Z,1.15
2024-02-26T13:22:08.329Z,1.63
2024-02-26T13:24:36.931Z,1.63
2024-02-26T13:27:06.507Z,1.30
2024-02-26T13:29:34.098Z,1.67
2024-02-26T13:32:01.903Z,1.85
2024-02-26T13:34:32.069Z,1.48
2024-02-26T13:36:59.789Z,1.90
2024-02-26T13:39:28.986Z,1.50
2024-02-26T13:41:56.498Z,1.27
2024-02-26T13:44:25.473Z,1.48
2024-02-26T13:46:53.255Z,0.95
2024-02-26T13:49:20.709Z,1.20
2024-02-26T13:51:47.975Z,1.83
2024-02-26T13:54:16.378Z,1.95
2024-02-26T13:56:45.795Z,3.20
2024-02-26T13:59:14.533Z,3.30
2024-02-26T14:01:41.926Z,1.98
2024-02-26T14:04:10.717Z,1.10
2024-02-26T14:06:38.741Z,1.58
2024-02-26T14:09:06.257Z,1.30
2024-02-26T14:11:34.923Z,1.85
2024-02-26T14:14:02.448Z,1.38
2024-02-26T14:16:32.481Z,1.30
2024-02-26T14:19:00.734Z,1.65
2024-02-26T14:21:28.776Z,1.42
2024-02-26T14:23:56.919Z,1.70
2024-02-26T14:26:24.870Z,1.60
2024-02-26T14:28:52.283Z,1.23
2024-02-26T14:31:20.031Z,1.50
2024-02-26T14:33:48.072Z,1.17
2024-02-26T14:36:16.238Z,2.05
2024-02-26T14:38:43.469Z,1.08
2024-02-26T14:41:11.669Z,0.98
2024-02-26T14:43:40.130Z,1.60
2024-02-26T14:46:07.360Z,2.00
2024-02-26T14:48:34.644Z,1.60
2024-02-26T14:51:02.254Z,1.15
2024-02-26T14:53:29.920Z,1.02
2024-02-26T14:55:57.281Z,1.80
2024-02-26T14:58:24.577Z,1.52
2024-02-26T15:00:52.871Z,1.38
2024-02-26T15:03:20.450Z,1.88
2024-02-26T15:05:48.026Z,1.30
2024-02-26T15:08:17.680Z,1.67
2024-02-26T15:10:49.396Z,1.10
2024-02-26T15:13:17.169Z,4.88
2024-02-26T15:15:44.665Z,2.72
2024-02-26T15:18:16.967Z,2.67
2024-02-26T15:20:45.148Z,1.98
2024-02-26T15:23:13.152Z,1.55
2024-02-26T15:25:42.565Z,2.35
2024-02-26T15:28:11.511Z,1.30
2024-02-26T15:30:38.692Z,2.05
2024-02-26T15:33:06.197Z,2.10
2024-02-26T15:35:33.598Z,2.45
2024-02-26T15:38:00.841Z,2.05
2024-02-26T15:40:28.331Z,3.08
2024-02-26T15:42:55.657Z,1.70
2024-02-26T15:45:23.038Z,2.15
2024-02-26T15:47:50.630Z,2.83
2024-02-26T15:50:18.165Z,3.30
2024-02-26T15:52:45.575Z,1.90
2024-02-26T15:55:17.065Z,3.03
2024-02-26T15:57:46.073Z,2.97
2024-02-26T16:00:17.096Z,2.90
2024-02-26T16:02:44.885Z,2.78
2024-02-26T16:05:14.168Z,5.10
2024-02-26T16:07:53.177Z,2.83
2024-02-26T16:10:21.058Z,2.30
2024-02-26T16:12:53.632Z,1.83
2024-02-26T16:15:24.330Z,2.22
2024-02-26T16:17:53.728Z,2.42
2024-02-26T16:20:22.638Z,2.63
2024-02-26T16:22:50.255Z,1.52
2024-02-26T16:25:19.821Z,2.80
2024-02-26T16:27:48.143Z,2.90
2024-02-26T16:30:15.538Z,2.78
2024-02-26T16:32:45.813Z,2.40
2024-02-26T16:35:13.372Z,2.25
2024-02-26T16:37:40.984Z,1.77
2024-02-26T16:40:12.746Z,1.67
2024-02-26T16:42:40.203Z,1.95
2024-02-26T16:45:07.973Z,2.00
2024-02-26T16:47:37.794Z,1.55
2024-02-26T16:50:07.410Z,2.20
2024-02-26T16:52:35.011Z,2.20
2024-02-26T16:55:05.291Z,4.35
2024-02-26T16:57:33.917Z,3.17
2024-02-26T17:00:01.304Z,2.83
2024-02-26T17:02:29.587Z,4.30
2024-02-26T17:04:56.946Z,3.22
2024-02-26T17:07:26.266Z,2.28
2024-02-26T17:09:56.377Z,2.30
2024-02-26T17:12:23.718Z,2.10
2024-02-26T17:14:52.290Z,2.45
2024-02-26T17:17:20.194Z,3.13
2024-02-26T17:19:47.706Z,4.32
2024-02-26T17:22:15.392Z,3.50
2024-02-26T17:24:42.930Z,3.80
2024-02-26T17:27:10.197Z,3.53
2024-02-26T17:29:38.353Z,4.90
2024-02-26T17:32:09.587Z,5.03
2024-02-26T17:34:39.644Z,4.20
2024-02-26T17:37:07.437Z,3.72
2024-02-26T17:39:35.065Z,3.10
2024-02-26T17:42:02.629Z,3.97
2024-02-26T17:44:41.282Z,6.32
2024-02-26T17:47:09.716Z,3.35
2024-02-26T17:49:37.043Z,3.15
2024-02-26T17:52:04.620Z,3.42
2024-02-26T17:54:31.897Z,2.75
2024-02-26T17:57:00.500Z,3.80
2024-02-26T17:59:30.031Z,2.80
2024-02-26T18:01:57.418Z,3.80
2024-02-26T18:04:25.374Z,2.88
2024-02-26T18:06:53.192Z,3.45
2024-02-26T18:09:20.627Z,5.95
2024-02-26T18:11:48.360Z,2.75
2024-02-26T18:14:17.262Z,3.90
2024-02-26T18:16:44.932Z,3.53
2024-02-26T18:19:12.326Z,4.22
2024-02-26T18:21:39.730Z,4.10
2024-02-26T18:24:07.632Z,4.85
2024-02-26T18:26:35.499Z,6.75
2024-02-26T18:29:03.260Z,5.22
2024-02-26T18:31:30.839Z,4.45
2024-02-26T18:33:58.596Z,3.80
2024-02-26T18:36:26.391Z,4.80
2024-02-26T18:38:54.164Z,4.45
2024-02-26T18:41:23.373Z,5.57
2024-02-26T18:43:52.676Z,5.78
2024-02-26T18:46:20.709Z,5.88
2024-02-26T18:48:49.831Z,7.70
2024-02-26T18:51:17.784Z,4.72
2024-02-26T18:53:46.545Z,4.40
2024-02-26T18:56:15.719Z,3.60
2024-02-26T18:58:44.461Z,4.18
2024-02-26T19:01:12.599Z,4.93
2024-02-26T19:03:40.325Z,4.50
2024-02-26T19:06:10.531Z,4.90
2024-02-26T19:08:41.980Z,6.28
2024-02-26T19:11:09.935Z,9.20
2024-02-26T19:13:40.253Z,10.05
2024-02-26T19:16:08.172Z,10.07
2024-02-26T19:18:35.653Z,11.02
2024-02-26T19:21:04.235Z,9.00
2024-02-26T19:23:38.170Z,9.32
2024-02-26T19:26:08.277Z,8.40
2024-02-26T19:28:35.767Z,9.23
2024-02-26T19:31:03.174Z,9.63
2024-02-26T19:33:33.516Z,9.13
2024-02-26T19:36:01.621Z,10.27
2024-02-26T19:38:29.406Z,13.32
2024-02-26T19:40:57.635Z,10.60
2024-02-26T19:43:25.318Z,13.68
2024-02-26T19:45:52.958Z,15.20
2024-02-26T19:48:20.721Z,13.68
2024-02-26T19:50:49.065Z,11.82
2024-02-26T19:53:19.529Z,12.80
2024-02-26T19:55:50.531Z,12.02
2024-02-26T19:58:20.815Z,11.07
2024-02-26T20:00:49.679Z,15.55
2024-02-26T20:03:19.742Z,14.30
2024-02-26T20:05:47.724Z,16.42
2024-02-26T20:08:18.556Z,16.27
2024-02-26T20:10:51.607Z,15.82
2024-02-26T20:13:23.429Z,15.07
2024-02-26T20:15:50.779Z,14.45
2024-02-26T20:18:18.592Z,13.95
2024-02-26T20:20:45.838Z,15.07
2024-02-26T20:23:16.496Z,17.90
2024-02-26T20:25:44.651Z,18.38
2024-02-26T20:28:12.790Z,15.18
2024-02-26T20:30:40.361Z,17.02
2024-02-26T20:33:07.844Z,17.60
2024-02-26T20:35:36.315Z,14.90
2024-02-26T20:38:04.031Z,13.65
2024-02-26T20:40:33.512Z,13.85
2024-02-26T20:43:00.955Z,12.35
2024-02-26T20:45:29.605Z,11.20
2024-02-26T20:48:00.579Z,14.65
2024-02-26T20:50:28.340Z,15.40
2024-02-26T20:52:55.946Z,16.63
2024-02-26T20:55:23.212Z,18.58
2024-02-26T20:57:50.803Z,21.13
2024-02-26T21:00:18.647Z,14.77
2024-02-26T21:02:46.139Z,20.60
2024-02-26T21:05:14.434Z,14.27
2024-02-26T21:07:43.220Z,12.93
2024-02-26T21:10:11.307Z,13.00
2024-02-26T21:12:39.510Z,10.57
2024-02-26T21:15:07.488Z,12.05
2024-02-26T21:17:35.229Z,10.60
2024-02-26T21:20:02.814Z,9.80
2024-02-26T21:22:31.276Z,10.05
2024-02-26T21:24:58.821Z,12.10
2024-02-26T21:27:26.997Z,11.73
2024-02-26T21:29:54.476Z,10.02
2024-02-26T21:32:24.077Z,11.90
2024-02-26T21:34:51.368Z,11.00
2024-02-26T21:37:18.887Z,12.45
2024-02-26T21:39:46.023Z,11.63
2024-02-26T21:42:13.580Z,13.88
2024-02-26T21:44:41.145Z,15.68
2024-02-26T21:47:08.787Z,15.75
2024-02-26T21:49:36.771Z,15.65
2024-02-26T21:52:07.547Z,13.23
2024-02-26T21:54:36.120Z,12.85
2024-02-26T21:57:04.787Z,11.98
2024-02-26T21:59:32.420Z,11.07
2024-02-26T22:02:00.137Z,11.90
2024-02-26T22:04:27.814Z,12.02
2024-02-26T22:06:55.591Z,11.70
2024-02-26T22:09:23.484Z,4.43
2024-02-26T22:11:54.131Z,2.47
2024-02-26T22:14:23.501Z,1.40
2024-02-26T22:16:53.704Z,2.40
2024-02-26T22:19:21.530Z,2.50
2024-02-26T22:21:49.287Z,1.08
2024-02-26T22:24:16.831Z,1.30
2024-02-26T22:26:45.655Z,1.38
2024-02-26T22:29:13.368Z,1.70
2024-02-26T22:31:43.998Z,6.47
2024-02-26T22:34:11.856Z,10.23
2024-02-26T22:36:39.691Z,9.35
2024-02-26T22:39:08.850Z,8.45
2024-02-26T22:41:43.195Z,7.97
2024-02-26T22:44:15.387Z,6.70
2024-02-26T22:46:43.834Z,6.00
2024-02-26T22:49:11.998Z,7.43
2024-02-26T22:51:40.159Z,6.38
2024-02-26T22:54:08.252Z,9.15
2024-02-26T22:56:35.811Z,7.53
2024-02-26T22:59:06.470Z,5.60
2024-02-26T23:01:34.566Z,4.05
2024-02-26T23:04:02.375Z,4.22
2024-02-26T23:06:30.462Z,4.95
2024-02-26T23:08:58.289Z,4.75
2024-02-26T23:11:25.730Z,6.47
2024-02-26T23:13:53.930Z,5.75
2024-02-26T23:16:21.328Z,5.45
2024-02-26T23:18:50.520Z,5.28
2024-02-26T23:21:19.665Z,5.00
2024-02-26T23:24:02.679Z,5.75
2024-02-26T23:26:29.766Z,5.65
2024-02-26T23:28:57.306Z,4.85
2024-02-26T23:31:24.886Z,5.50
2024-02-26T23:33:54.456Z,5.05
2024-02-26T23:36:21.914Z,4.63
2024-02-26T23:38:49.644Z,4.60
2024-02-26T23:41:17.373Z,5.35
2024-02-26T23:43:44.683Z,5.85
2024-02-26T23:46:11.964Z,3.20
2024-02-26T23:48:39.167Z,3.38
2024-02-26T23:51:06.512Z,4.80
2024-02-26T23:53:33.908Z,4.30
2024-02-26T23:56:01.634Z,4.90
2024-02-26T23:58:29.031Z,4.93
